sensor_id;sensor_type;location;lat;lon;timestamp;P1;durP1;ratioP1;P2;durP2;ratioP2
81629;SDS011;71039;49.500;10.418;2024-01-15T00:00:39;6.53;;;4.78;;
81629;SDS011;71039;49.500;10.418;2024-01-15T00:03:05;6.20;;;5.70;;
81629;SDS011;71039;49.500;10.418;2024-01-15T00:05:30;6.32;;;5.35;;
81629;SDS011;71039;49.500;10.418;2024-01-15T00:07:56;8.38;;;7.03;;
81629;SDS011;71039;49.500;10.418;2024-01-15T00:10:21;6.60;;;6.05;;
81629;SDS011;71039;49.500;10.418;2024-01-15T00:12:48;6.70;;;5.78;;
81629;SDS011;71039;49.500;10.418;2024-01-15T00:15:13;5.80;;;5.35;;
81629;SDS011;71039;49.500;10.418;2024-01-15T00:17:39;5.97;;;5.38;;
81629;SDS011;71039;49.500;10.418;2024-01-15T00:20:05;5.32;;;4.82;;
81629;SDS011;71039;49.500;10.418;2024-01-15T00:22:31;5.63;;;5.13;;
81629;SDS011;71039;49.500;10.418;2024-01-15T00:24:56;8.35;;;5.60;;
81629;SDS011;71039;49.500;10.418;2024-01-15T00:27:22;8.73;;;6.25;;
81629;SDS011;71039;49.500;10.418;2024-01-15T00:29:47;5.80;;;4.85;;
81629;SDS011;71039;49.500;10.418;2024-01-15T00:32:13;5.75;;;5.18;;
81629;SDS011;71039;49.500;10.418;2024-01-15T00:34:38;6.20;;;5.57;;
81629;SDS011;71039;49.500;10.418;2024-01-15T00:37:04;6.65;;;6.15;;
81629;SDS011;71039;49.500;10.418;2024-01-15T00:39:29;9.57;;;6.57;;
81629;SDS011;71039;49.500;10.418;2024-01-15T00:41:55;6.47;;;5.88;;
81629;SDS011;71039;49.500;10.418;2024-01-15T00:44:20;8.38;;;7.82;;
81629;SDS011;71039;49.500;10.418;2024-01-15T00:46:46;7.35;;;6.28;;
81629;SDS011;71039;49.500;10.418;2024-01-15T00:49:14;6.15;;;5.63;;
81629;SDS011;71039;49.500;10.418;2024-01-15T00:51:40;7.40;;;5.75;;
81629;SDS011;71039;49.500;10.418;2024-01-15T00:54:06;9.45;;;7.85;;
81629;SDS011;71039;49.500;10.418;2024-01-15T00:56:32;7.70;;;6.40;;
81629;SDS011;71039;49.500;10.418;2024-01-15T00:58:58;7.57;;;6.22;;
81629;SDS011;71039;49.500;10.418;2024-01-15T01:01:23;7.13;;;6.30;;
81629;SDS011;71039;49.500;10.418;2024-01-15T01:03:49;5.22;;;4.78;;
81629;SDS011;71039;49.500;10.418;2024-01-15T01:06:14;6.57;;;6.03;;
81629;SDS011;71039;49.500;10.418;2024-01-15T01:08:40;6.03;;;5.53;;
81629;SDS011;71039;49.500;10.418;2024-01-15T01:11:12;7.82;;;7.10;;
81629;SDS011;71039;49.500;10.418;2024-01-15T01:13:40;7.60;;;7.03;;
81629;SDS011;71039;49.500;10.418;2024-01-15T01:16:06;5.72;;;5.22;;
81629;SDS011;71039;49.500;10.418;2024-01-15T01:18:32;5.68;;;5.28;;
81629;SDS011;71039;49.500;10.418;2024-01-15T01:20:57;5.47;;;4.97;;
81629;SDS011;71039;49.500;10.418;2024-01-15T01:23:23;6.95;;;6.35;;
81629;SDS011;71039;49.500;10.418;2024-01-15T01:25:48;5.93;;;5.43;;
81629;SDS011;71039;49.500;10.418;2024-01-15T01:28:14;6.43;;;6.03;;
81629;SDS011;71039;49.500;10.418;2024-01-15T01:30:39;5.32;;;4.82;;
81629;SDS011;71039;49.500;10.418;2024-01-15T01:33:05;5.72;;;5.20;;
81629;SDS011;71039;49.500;10.418;2024-01-15T01:35:30;6.00;;;5.40;;
81629;SDS011;71039;49.500;10.418;2024-01-15T01:37:56;4.15;;;3.85;;
81629;SDS011;71039;49.500;10.418;2024-01-15T01:40:21;5.68;;;4.88;;
81629;SDS011;71039;49.500;10.418;2024-01-15T01:42:47;6.70;;;6.00;;
81629;SDS011;71039;49.500;10.418;2024-01-15T01:45:13;5.97;;;5.50;;
81629;SDS011;71039;49.500;10.418;2024-01-15T01:47:39;4.93;;;4.47;;
81629;SDS011;71039;49.500;10.418;2024-01-15T01:50:05;6.40;;;5.82;;
81629;SDS011;71039;49.500;10.418;2024-01-15T01:52:31;6.07;;;5.68;;
81629;SDS011;71039;49.500;10.418;2024-01-15T01:54:56;5.57;;;4.70;;
81629;SDS011;71039;49.500;10.418;2024-01-15T01:57:23;6.38;;;5.78;;
81629;SDS011;71039;49.500;10.418;2024-01-15T01:59:49;6.20;;;5.63;;
81629;SDS011;71039;49.500;10.418;2024-01-15T02:02:15;8.00;;;6.75;;
81629;SDS011;71039;49.500;10.418;2024-01-15T02:04:41;6.45;;;5.40;;
81629;SDS011;71039;49.500;10.418;2024-01-15T02:07:07;7.15;;;6.60;;
81629;SDS011;71039;49.500;10.418;2024-01-15T02:09:33;6.82;;;6.10;;
81629;SDS011;71039;49.500;10.418;2024-01-15T02:11:58;6.25;;;5.72;;
81629;SDS011;71039;49.500;10.418;2024-01-15T02:14:24;5.60;;;5.15;;
81629;SDS011;71039;49.500;10.418;2024-01-15T02:16:50;6.13;;;5.65;;
81629;SDS011;71039;49.500;10.418;2024-01-15T02:19:16;4.68;;;4.25;;
81629;SDS011;71039;49.500;10.418;2024-01-15T02:21:41;5.95;;;5.43;;
81629;SDS011;71039;49.500;10.418;2024-01-15T02:24:07;7.63;;;6.90;;
81629;SDS011;71039;49.500;10.418;2024-01-15T02:26:32;8.23;;;7.50;;
81629;SDS011;71039;49.500;10.418;2024-01-15T02:28:58;7.22;;;6.32;;
81629;SDS011;71039;49.500;10.418;2024-01-15T02:31:23;5.57;;;5.18;;
81629;SDS011;71039;49.500;10.418;2024-01-15T02:33:49;5.13;;;4.35;;
81629;SDS011;71039;49.500;10.418;2024-01-15T02:36:15;4.55;;;4.15;;
81629;SDS011;71039;49.500;10.418;2024-01-15T02:38:41;5.80;;;5.32;;
81629;SDS011;71039;49.500;10.418;2024-01-15T02:41:06;5.82;;;5.28;;
81629;SDS011;71039;49.500;10.418;2024-01-15T02:43:32;5.43;;;4.93;;
81629;SDS011;71039;49.500;10.418;2024-01-15T02:45:57;4.53;;;4.10;;
81629;SDS011;71039;49.500;10.418;2024-01-15T02:48:23;4.47;;;4.07;;
81629;SDS011;71039;49.500;10.418;2024-01-15T02:50:48;5.60;;;5.07;;
81629;SDS011;71039;49.500;10.418;2024-01-15T02:53:14;6.13;;;5.47;;
81629;SDS011;71039;49.500;10.418;2024-01-15T02:55:39;5.50;;;5.00;;
81629;SDS011;71039;49.500;10.418;2024-01-15T02:58:05;5.25;;;4.72;;
81629;SDS011;71039;49.500;10.418;2024-01-15T03:00:30;5.40;;;4.90;;
81629;SDS011;71039;49.500;10.418;2024-01-15T03:02:56;6.95;;;6.22;;
81629;SDS011;71039;49.500;10.418;2024-01-15T03:05:21;5.50;;;5.10;;
81629;SDS011;71039;49.500;10.418;2024-01-15T03:07:47;4.78;;;4.38;;
81629;SDS011;71039;49.500;10.418;2024-01-15T03:10:12;5.97;;;5.45;;
81629;SDS011;71039;49.500;10.418;2024-01-15T03:12:38;5.70;;;5.32;;
81629;SDS011;71039;49.500;10.418;2024-01-15T03:15:03;6.95;;;5.10;;
81629;SDS011;71039;49.500;10.418;2024-01-15T03:17:29;4.88;;;4.47;;
81629;SDS011;71039;49.500;10.418;2024-01-15T03:19:55;5.13;;;4.70;;
81629;SDS011;71039;49.500;10.418;2024-01-15T03:22:20;5.47;;;5.07;;
81629;SDS011;71039;49.500;10.418;2024-01-15T03:24:46;5.43;;;5.03;;
81629;SDS011;71039;49.500;10.418;2024-01-15T03:27:12;5.88;;;5.38;;
81629;SDS011;71039;49.500;10.418;2024-01-15T03:29:37;4.68;;;4.25;;
81629;SDS011;71039;49.500;10.418;2024-01-15T03:32:04;5.97;;;5.38;;
81629;SDS011;71039;49.500;10.418;2024-01-15T03:34:29;4.60;;;4.18;;
81629;SDS011;71039;49.500;10.418;2024-01-15T03:36:55;6.20;;;5.57;;
81629;SDS011;71039;49.500;10.418;2024-01-15T03:39:20;5.38;;;4.97;;
81629;SDS011;71039;49.500;10.418;2024-01-15T03:41:46;5.50;;;5.10;;
81629;SDS011;71039;49.500;10.418;2024-01-15T03:44:11;5.22;;;4.90;;
81629;SDS011;71039;49.500;10.418;2024-01-15T03:46:37;6.35;;;5.95;;
81629;SDS011;71039;49.500;10.418;2024-01-15T03:49:02;5.90;;;4.80;;
81629;SDS011;71039;49.500;10.418;2024-01-15T03:51:28;4.28;;;3.88;;
81629;SDS011;71039;49.500;10.418;2024-01-15T03:53:53;4.53;;;4.13;;
81629;SDS011;71039;49.500;10.418;2024-01-15T03:56:19;5.70;;;5.28;;
81629;SDS011;71039;49.500;10.418;2024-01-15T03:58:44;5.50;;;5.00;;
81629;SDS011;71039;49.500;10.418;2024-01-15T04:01:10;4.85;;;4.40;;
81629;SDS011;71039;49.500;10.418;2024-01-15T04:03:36;4.47;;;3.90;;
81629;SDS011;71039;49.500;10.418;2024-01-15T04:06:02;5.70;;;5.13;;
81629;SDS011;71039;49.500;10.418;2024-01-15T04:08:28;5.43;;;4.93;;
81629;SDS011;71039;49.500;10.418;2024-01-15T04:10:54;6.72;;;5.15;;
81629;SDS011;71039;49.500;10.418;2024-01-15T04:13:19;5.68;;;5.18;;
81629;SDS011;71039;49.500;10.418;2024-01-15T04:15:45;5.57;;;4.85;;
81629;SDS011;71039;49.500;10.418;2024-01-15T04:18:10;5.82;;;5.22;;
81629;SDS011;71039;49.500;10.418;2024-01-15T04:20:36;5.47;;;5.00;;
81629;SDS011;71039;49.500;10.418;2024-01-15T04:23:01;5.05;;;4.60;;
81629;SDS011;71039;49.500;10.418;2024-01-15T04:25:27;5.18;;;4.82;;
81629;SDS011;71039;49.500;10.418;2024-01-15T04:27:52;5.05;;;4.57;;
81629;SDS011;71039;49.500;10.418;2024-01-15T04:30:18;4.07;;;3.70;;
81629;SDS011;71039;49.500;10.418;2024-01-15T04:32:43;6.22;;;5.55;;
81629;SDS011;71039;49.500;10.418;2024-01-15T04:35:09;4.95;;;4.53;;
81629;SDS011;71039;49.500;10.418;2024-01-15T04:37:34;4.72;;;4.38;;
81629;SDS011;71039;49.500;10.418;2024-01-15T04:40:00;5.30;;;4.80;;
81629;SDS011;71039;49.500;10.418;2024-01-15T04:42:25;5.10;;;4.57;;
81629;SDS011;71039;49.500;10.418;2024-01-15T04:44:51;5.85;;;5.35;;
81629;SDS011;71039;49.500;10.418;2024-01-15T04:47:16;5.20;;;4.70;;
81629;SDS011;71039;49.500;10.418;2024-01-15T04:49:42;5.97;;;5.47;;
81629;SDS011;71039;49.500;10.418;2024-01-15T04:52:07;5.70;;;5.18;;
81629;SDS011;71039;49.500;10.418;2024-01-15T04:54:33;4.28;;;3.97;;
81629;SDS011;71039;49.500;10.418;2024-01-15T04:56:58;6.53;;;5.20;;
81629;SDS011;71039;49.500;10.418;2024-01-15T04:59:24;5.63;;;4.82;;
81629;SDS011;71039;49.500;10.418;2024-01-15T05:01:49;5.40;;;5.00;;
81629;SDS011;71039;49.500;10.418;2024-01-15T05:04:15;6.13;;;5.70;;
81629;SDS011;71039;49.500;10.418;2024-01-15T05:06:40;5.70;;;5.28;;
81629;SDS011;71039;49.500;10.418;2024-01-15T05:09:06;4.95;;;4.55;;
81629;SDS011;71039;49.500;10.418;2024-01-15T05:11:31;4.72;;;4.53;;
81629;SDS011;71039;49.500;10.418;2024-01-15T05:13:57;5.55;;;5.13;;
81629;SDS011;71039;49.500;10.418;2024-01-15T05:16:22;5.80;;;5.40;;
81629;SDS011;71039;49.500;10.418;2024-01-15T05:18:48;4.32;;;4.00;;
81629;SDS011;71039;49.500;10.418;2024-01-15T05:21:13;6.03;;;5.32;;
81629;SDS011;71039;49.500;10.418;2024-01-15T05:23:39;5.13;;;4.72;;
81629;SDS011;71039;49.500;10.418;2024-01-15T05:26:04;4.65;;;4.35;;
81629;SDS011;71039;49.500;10.418;2024-01-15T05:28:30;4.78;;;4.45;;
81629;SDS011;71039;49.500;10.418;2024-01-15T05:30:55;4.13;;;3.75;;
81629;SDS011;71039;49.500;10.418;2024-01-15T05:33:24;13.77;;;12.70;;
81629;SDS011;71039;49.500;10.418;2024-01-15T05:35:50;8.48;;;7.68;;
81629;SDS011;71039;49.500;10.418;2024-01-15T05:38:15;5.13;;;4.72;;
81629;SDS011;71039;49.500;10.418;2024-01-15T05:40:41;4.72;;;4.40;;
81629;SDS011;71039;49.500;10.418;2024-01-15T05:43:07;4.70;;;4.30;;
81629;SDS011;71039;49.500;10.418;2024-01-15T05:45:33;6.35;;;5.90;;
81629;SDS011;71039;49.500;10.418;2024-01-15T05:47:59;4.57;;;4.28;;
81629;SDS011;71039;49.500;10.418;2024-01-15T05:50:25;6.22;;;5.72;;
81629;SDS011;71039;49.500;10.418;2024-01-15T05:52:50;5.25;;;4.82;;
81629;SDS011;71039;49.500;10.418;2024-01-15T05:55:16;5.13;;;4.70;;
81629;SDS011;71039;49.500;10.418;2024-01-15T05:57:41;4.75;;;4.30;;
81629;SDS011;71039;49.500;10.418;2024-01-15T06:00:07;4.43;;;4.07;;
81629;SDS011;71039;49.500;10.418;2024-01-15T06:02:33;4.15;;;3.67;;
81629;SDS011;71039;49.500;10.418;2024-01-15T06:04:58;5.38;;;4.85;;
81629;SDS011;71039;49.500;10.418;2024-01-15T06:07:24;4.22;;;3.83;;
81629;SDS011;71039;49.500;10.418;2024-01-15T06:09:49;6.13;;;5.72;;
81629;SDS011;71039;49.500;10.418;2024-01-15T06:12:15;5.13;;;4.47;;
81629;SDS011;71039;49.500;10.418;2024-01-15T06:14:40;5.10;;;3.47;;
81629;SDS011;71039;49.500;10.418;2024-01-15T06:17:06;4.78;;;4.45;;
81629;SDS011;71039;49.500;10.418;2024-01-15T06:19:31;3.65;;;3.42;;
81629;SDS011;71039;49.500;10.418;2024-01-15T06:21:57;4.47;;;4.07;;
81629;SDS011;71039;49.500;10.418;2024-01-15T06:24:22;5.50;;;5.07;;
81629;SDS011;71039;49.500;10.418;2024-01-15T06:26:48;4.88;;;3.63;;
81629;SDS011;71039;49.500;10.418;2024-01-15T06:29:13;5.50;;;5.00;;
81629;SDS011;71039;49.500;10.418;2024-01-15T06:31:39;5.40;;;4.90;;
81629;SDS011;71039;49.500;10.418;2024-01-15T06:34:04;6.00;;;5.40;;
81629;SDS011;71039;49.500;10.418;2024-01-15T06:36:30;4.47;;;4.07;;
81629;SDS011;71039;49.500;10.418;2024-01-15T06:38:55;4.45;;;4.05;;
81629;SDS011;71039;49.500;10.418;2024-01-15T06:41:21;4.72;;;4.28;;
81629;SDS011;71039;49.500;10.418;2024-01-15T06:43:46;5.95;;;5.38;;
81629;SDS011;71039;49.500;10.418;2024-01-15T06:46:12;4.28;;;3.88;;
81629;SDS011;71039;49.500;10.418;2024-01-15T06:48:38;3.97;;;3.67;;
81629;SDS011;71039;49.500;10.418;2024-01-15T06:51:03;4.25;;;3.83;;
81629;SDS011;71039;49.500;10.418;2024-01-15T06:53:29;5.70;;;5.30;;
81629;SDS011;71039;49.500;10.418;2024-01-15T06:55:54;4.60;;;4.25;;
81629;SDS011;71039;49.500;10.418;2024-01-15T06:58:20;5.82;;;4.50;;
81629;SDS011;71039;49.500;10.418;2024-01-15T07:00:46;4.90;;;4.50;;
81629;SDS011;71039;49.500;10.418;2024-01-15T07:03:11;4.50;;;3.95;;
81629;SDS011;71039;49.500;10.418;2024-01-15T07:05:37;5.70;;;5.20;;
81629;SDS011;71039;49.500;10.418;2024-01-15T07:08:02;4.25;;;3.95;;
81629;SDS011;71039;49.500;10.418;2024-01-15T07:10:28;7.13;;;5.95;;
81629;SDS011;71039;49.500;10.418;2024-01-15T07:12:53;5.93;;;5.45;;
81629;SDS011;71039;49.500;10.418;2024-01-15T07:15:19;4.60;;;4.18;;
81629;SDS011;71039;49.500;10.418;2024-01-15T07:17:44;3.67;;;3.28;;
81629;SDS011;71039;49.500;10.418;2024-01-15T07:20:10;4.55;;;3.60;;
81629;SDS011;71039;49.500;10.418;2024-01-15T07:22:36;4.00;;;3.70;;
81629;SDS011;71039;49.500;10.418;2024-01-15T07:25:02;4.20;;;3.90;;
81629;SDS011;71039;49.500;10.418;2024-01-15T07:27:27;5.22;;;4.68;;
81629;SDS011;71039;49.500;10.418;2024-01-15T07:29:53;5.57;;;5.10;;
81629;SDS011;71039;49.500;10.418;2024-01-15T07:32:18;4.00;;;3.75;;
81629;SDS011;71039;49.500;10.418;2024-01-15T07:34:44;3.80;;;3.50;;
81629;SDS011;71039;49.500;10.418;2024-01-15T07:37:09;4.80;;;4.40;;
81629;SDS011;71039;49.500;10.418;2024-01-15T07:39:35;4.10;;;3.80;;
81629;SDS011;71039;49.500;10.418;2024-01-15T07:42:00;4.05;;;3.72;;
81629;SDS011;71039;49.500;10.418;2024-01-15T07:44:26;5.00;;;4.60;;
81629;SDS011;71039;49.500;10.418;2024-01-15T07:46:51;4.35;;;4.05;;
81629;SDS011;71039;49.500;10.418;2024-01-15T07:49:17;4.18;;;3.88;;
81629;SDS011;71039;49.500;10.418;2024-01-15T07:51:42;4.47;;;4.13;;
81629;SDS011;71039;49.500;10.418;2024-01-15T07:54:08;5.10;;;4.40;;
81629;SDS011;71039;49.500;10.418;2024-01-15T07:56:34;4.00;;;3.65;;
81629;SDS011;71039;49.500;10.418;2024-01-15T07:59:17;4.25;;;3.95;;
81629;SDS011;71039;49.500;10.418;2024-01-15T08:01:43;3.92;;;3.60;;
81629;SDS011;71039;49.500;10.418;2024-01-15T08:04:08;4.85;;;4.45;;
81629;SDS011;71039;49.500;10.418;2024-01-15T08:06:34;4.45;;;4.05;;
81629;SDS011;71039;49.500;10.418;2024-01-15T08:08:59;4.20;;;3.85;;
81629;SDS011;71039;49.500;10.418;2024-01-15T08:11:25;4.50;;;4.10;;
81629;SDS011;71039;49.500;10.418;2024-01-15T08:13:50;5.05;;;4.55;;
81629;SDS011;71039;49.500;10.418;2024-01-15T08:16:15;5.22;;;4.13;;
81629;SDS011;71039;49.500;10.418;2024-01-15T08:18:41;5.90;;;4.43;;
81629;SDS011;71039;49.500;10.418;2024-01-15T08:21:07;5.20;;;4.75;;
81629;SDS011;71039;49.500;10.418;2024-01-15T08:23:34;5.07;;;4.57;;
81629;SDS011;71039;49.500;10.418;2024-01-15T08:25:59;5.15;;;4.75;;
81629;SDS011;71039;49.500;10.418;2024-01-15T08:28:25;5.18;;;4.78;;
81629;SDS011;71039;49.500;10.418;2024-01-15T08:30:50;5.10;;;4.30;;
81629;SDS011;71039;49.500;10.418;2024-01-15T08:33:16;4.97;;;4.53;;
81629;SDS011;71039;49.500;10.418;2024-01-15T08:35:41;5.25;;;4.72;;
81629;SDS011;71039;49.500;10.418;2024-01-15T08:38:07;4.95;;;4.55;;
81629;SDS011;71039;49.500;10.418;2024-01-15T08:40:32;4.68;;;4.18;;
81629;SDS011;71039;49.500;10.418;2024-01-15T08:42:58;5.72;;;5.30;;
81629;SDS011;71039;49.500;10.418;2024-01-15T08:45:23;5.15;;;4.75;;
81629;SDS011;71039;49.500;10.418;2024-01-15T08:47:49;4.13;;;3.80;;
81629;SDS011;71039;49.500;10.418;2024-01-15T08:50:14;3.85;;;3.53;;
81629;SDS011;71039;49.500;10.418;2024-01-15T08:52:40;5.35;;;4.85;;
81629;SDS011;71039;49.500;10.418;2024-01-15T08:55:05;4.18;;;3.88;;
81629;SDS011;71039;49.500;10.418;2024-01-15T08:57:31;3.72;;;3.33;;
81629;SDS011;71039;49.500;10.418;2024-01-15T08:59:56;4.78;;;4.38;;
81629;SDS011;71039;49.500;10.418;2024-01-15T09:02:22;4.10;;;3.80;;
81629;SDS011;71039;49.500;10.418;2024-01-15T09:04:47;5.25;;;4.70;;
81629;SDS011;71039;49.500;10.418;2024-01-15T09:07:13;3.35;;;3.05;;
81629;SDS011;71039;49.500;10.418;2024-01-15T09:09:38;5.30;;;4.80;;
81629;SDS011;71039;49.500;10.418;2024-01-15T09:12:04;3.90;;;3.47;;
81629;SDS011;71039;49.500;10.418;2024-01-15T09:14:30;4.50;;;3.85;;
81629;SDS011;71039;49.500;10.418;2024-01-15T09:16:55;4.22;;;3.92;;
81629;SDS011;71039;49.500;10.418;2024-01-15T09:19:21;4.50;;;4.10;;
81629;SDS011;71039;49.500;10.418;2024-01-15T09:21:46;4.20;;;3.85;;
81629;SDS011;71039;49.500;10.418;2024-01-15T09:24:12;4.75;;;4.35;;
81629;SDS011;71039;49.500;10.418;2024-01-15T09:26:37;4.43;;;4.03;;
81629;SDS011;71039;49.500;10.418;2024-01-15T09:29:03;4.25;;;4.00;;
81629;SDS011;71039;49.500;10.418;2024-01-15T09:31:28;4.20;;;4.00;;
81629;SDS011;71039;49.500;10.418;2024-01-15T09:33:54;4.13;;;3.83;;
81629;SDS011;71039;49.500;10.418;2024-01-15T09:36:19;4.40;;;4.00;;
81629;SDS011;71039;49.500;10.418;2024-01-15T09:38:45;3.88;;;3.58;;
81629;SDS011;71039;49.500;10.418;2024-01-15T09:41:10;4.38;;;4.07;;
81629;SDS011;71039;49.500;10.418;2024-01-15T09:43:36;4.65;;;4.28;;
81629;SDS011;71039;49.500;10.418;2024-01-15T09:46:02;5.32;;;4.93;;
81629;SDS011;71039;49.500;10.418;2024-01-15T09:48:28;4.13;;;3.72;;
81629;SDS011;71039;49.500;10.418;2024-01-15T09:50:54;3.67;;;3.38;;
81629;SDS011;71039;49.500;10.418;2024-01-15T09:53:22;7.78;;;4.88;;
81629;SDS011;71039;49.500;10.418;2024-01-15T09:55:49;3.75;;;3.45;;
81629;SDS011;71039;49.500;10.418;2024-01-15T09:58:15;3.53;;;3.20;;
81629;SDS011;71039;49.500;10.418;2024-01-15T10:00:40;4.80;;;4.40;;
81629;SDS011;71039;49.500;10.418;2024-01-15T10:03:07;4.03;;;3.67;;
81629;SDS011;71039;49.500;10.418;2024-01-15T10:05:33;4.03;;;3.63;;
81629;SDS011;71039;49.500;10.418;2024-01-15T10:07:59;3.67;;;3.38;;
81629;SDS011;71039;49.500;10.418;2024-01-15T10:10:27;5.63;;;3.97;;
81629;SDS011;71039;49.500;10.418;2024-01-15T10:12:53;4.32;;;3.63;;
81629;SDS011;71039;49.500;10.418;2024-01-15T10:15:23;4.88;;;4.32;;
81629;SDS011;71039;49.500;10.418;2024-01-15T10:17:48;3.17;;;2.97;;
81629;SDS011;71039;49.500;10.418;2024-01-15T10:20:14;3.15;;;2.85;;
81629;SDS011;71039;49.500;10.418;2024-01-15T10:22:43;4.10;;;3.72;;
81629;SDS011;71039;49.500;10.418;2024-01-15T10:25:10;3.42;;;3.10;;
81629;SDS011;71039;49.500;10.418;2024-01-15T10:27:36;3.40;;;3.10;;
81629;SDS011;71039;49.500;10.418;2024-01-15T10:30:02;3.00;;;2.80;;
81629;SDS011;71039;49.500;10.418;2024-01-15T10:32:27;3.65;;;3.03;;
81629;SDS011;71039;49.500;10.418;2024-01-15T10:34:53;2.75;;;2.50;;
81629;SDS011;71039;49.500;10.418;2024-01-15T10:37:20;4.45;;;4.15;;
81629;SDS011;71039;49.500;10.418;2024-01-15T10:39:48;4.13;;;3.17;;
81629;SDS011;71039;49.500;10.418;2024-01-15T10:42:14;3.05;;;2.75;;
81629;SDS011;71039;49.500;10.418;2024-01-15T10:44:41;3.95;;;2.95;;
81629;SDS011;71039;49.500;10.418;2024-01-15T10:47:06;4.05;;;3.65;;
81629;SDS011;71039;49.500;10.418;2024-01-15T10:49:32;2.90;;;2.67;;
81629;SDS011;71039;49.500;10.418;2024-01-15T10:51:57;3.53;;;3.25;;
81629;SDS011;71039;49.500;10.418;2024-01-15T10:54:23;4.93;;;4.63;;
81629;SDS011;71039;49.500;10.418;2024-01-15T10:56:51;4.45;;;3.88;;
81629;SDS011;71039;49.500;10.418;2024-01-15T10:59:18;2.65;;;2.45;;
81629;SDS011;71039;49.500;10.418;2024-01-15T11:01:45;3.83;;;3.53;;
81629;SDS011;71039;49.500;10.418;2024-01-15T11:04:12;3.35;;;2.90;;
81629;SDS011;71039;49.500;10.418;2024-01-15T11:06:42;3.80;;;3.50;;
81629;SDS011;71039;49.500;10.418;2024-01-15T11:09:09;4.00;;;3.63;;
81629;SDS011;71039;49.500;10.418;2024-01-15T11:11:35;3.17;;;2.97;;
81629;SDS011;71039;49.500;10.418;2024-01-15T11:14:01;3.55;;;3.17;;
81629;SDS011;71039;49.500;10.418;2024-01-15T11:16:28;3.03;;;2.80;;
81629;SDS011;71039;49.500;10.418;2024-01-15T11:19:18;3.58;;;3.38;;
81629;SDS011;71039;49.500;10.418;2024-01-15T11:21:44;3.40;;;3.13;;
81629;SDS011;71039;49.500;10.418;2024-01-15T11:24:09;2.85;;;2.65;;
81629;SDS011;71039;49.500;10.418;2024-01-15T11:29:07;3.38;;;3.08;;
81629;SDS011;71039;49.500;10.418;2024-01-15T11:34:05;2.63;;;2.45;;
81629;SDS011;71039;49.500;10.418;2024-01-15T11:42:00;3.22;;;3.03;;
81629;SDS011;71039;49.500;10.418;2024-01-15T11:44:27;3.45;;;3.25;;
81629;SDS011;71039;49.500;10.418;2024-01-15T11:47:05;2.97;;;2.78;;
81629;SDS011;71039;49.500;10.418;2024-01-15T11:52:26;2.92;;;2.72;;
81629;SDS011;71039;49.500;10.418;2024-01-15T11:55:10;4.50;;;4.22;;
81629;SDS011;71039;49.500;10.418;2024-01-15T12:00:07;3.00;;;2.75;;
81629;SDS011;71039;49.500;10.418;2024-01-15T12:02:39;3.88;;;3.58;;
81629;SDS011;71039;49.500;10.418;2024-01-15T12:07:31;3.25;;;3.00;;
81629;SDS011;71039;49.500;10.418;2024-01-15T12:09:56;2.03;;;1.90;;
81629;SDS011;71039;49.500;10.418;2024-01-15T12:12:37;2.58;;;2.38;;
81629;SDS011;71039;49.500;10.418;2024-01-15T12:15:07;2.92;;;2.72;;
81629;SDS011;71039;49.500;10.418;2024-01-15T12:17:34;2.88;;;2.67;;
81629;SDS011;71039;49.500;10.418;2024-01-15T12:20:00;4.15;;;3.88;;
81629;SDS011;71039;49.500;10.418;2024-01-15T12:22:26;3.35;;;3.05;;
81629;SDS011;71039;49.500;10.418;2024-01-15T12:24:51;4.13;;;3.83;;
81629;SDS011;71039;49.500;10.418;2024-01-15T12:27:17;2.85;;;2.65;;
81629;SDS011;71039;49.500;10.418;2024-01-15T12:29:42;3.65;;;3.40;;
81629;SDS011;71039;49.500;10.418;2024-01-15T12:32:08;2.83;;;2.72;;
81629;SDS011;71039;49.500;10.418;2024-01-15T12:34:33;2.45;;;2.35;;
81629;SDS011;71039;49.500;10.418;2024-01-15T12:36:59;2.90;;;2.75;;
81629;SDS011;71039;49.500;10.418;2024-01-15T12:39:25;3.78;;;3.47;;
81629;SDS011;71039;49.500;10.418;2024-01-15T12:41:51;2.42;;;2.33;;
81629;SDS011;71039;49.500;10.418;2024-01-15T12:44:16;3.70;;;3.50;;
81629;SDS011;71039;49.500;10.418;2024-01-15T12:46:42;2.90;;;2.70;;
81629;SDS011;71039;49.500;10.418;2024-01-15T12:49:08;3.00;;;2.80;;
81629;SDS011;71039;49.500;10.418;2024-01-15T12:51:36;2.83;;;2.70;;
81629;SDS011;71039;49.500;10.418;2024-01-15T12:54:02;3.60;;;3.30;;
81629;SDS011;71039;49.500;10.418;2024-01-15T12:56:27;2.97;;;2.78;;
81629;SDS011;71039;49.500;10.418;2024-01-15T12:58:53;2.50;;;2.40;;
81629;SDS011;71039;49.500;10.418;2024-01-15T13:01:18;2.80;;;2.60;;
81629;SDS011;71039;49.500;10.418;2024-01-15T13:03:44;2.53;;;2.42;;
81629;SDS011;71039;49.500;10.418;2024-01-15T13:06:09;2.58;;;2.38;;
81629;SDS011;71039;49.500;10.418;2024-01-15T13:08:35;2.50;;;2.30;;
81629;SDS011;71039;49.500;10.418;2024-01-15T13:11:00;2.75;;;2.55;;
81629;SDS011;71039;49.500;10.418;2024-01-15T13:13:26;2.38;;;2.28;;
81629;SDS011;71039;49.500;10.418;2024-01-15T13:15:51;2.42;;;2.25;;
81629;SDS011;71039;49.500;10.418;2024-01-15T13:18:17;2.33;;;2.22;;
81629;SDS011;71039;49.500;10.418;2024-01-15T13:20:42;2.65;;;2.55;;
81629;SDS011;71039;49.500;10.418;2024-01-15T13:23:08;2.58;;;2.47;;
81629;SDS011;71039;49.500;10.418;2024-01-15T13:25:33;3.20;;;2.45;;
81629;SDS011;71039;49.500;10.418;2024-01-15T13:27:59;2.08;;;1.98;;
81629;SDS011;71039;49.500;10.418;2024-01-15T13:30:24;3.45;;;3.25;;
81629;SDS011;71039;49.500;10.418;2024-01-15T13:32:50;2.83;;;2.63;;
81629;SDS011;71039;49.500;10.418;2024-01-15T13:35:16;2.63;;;2.47;;
81629;SDS011;71039;49.500;10.418;2024-01-15T13:37:41;2.55;;;2.40;;
81629;SDS011;71039;49.500;10.418;2024-01-15T13:40:07;2.20;;;2.10;;
81629;SDS011;71039;49.500;10.418;2024-01-15T13:42:33;2.97;;;2.78;;
81629;SDS011;71039;49.500;10.418;2024-01-15T13:44:58;3.47;;;3.25;;
81629;SDS011;71039;49.500;10.418;2024-01-15T13:47:24;2.25;;;2.15;;
81629;SDS011;71039;49.500;10.418;2024-01-15T13:49:49;2.60;;;2.50;;
81629;SDS011;71039;49.500;10.418;2024-01-15T13:52:15;2.63;;;2.53;;
81629;SDS011;71039;49.500;10.418;2024-01-15T13:54:40;2.92;;;2.67;;
81629;SDS011;71039;49.500;10.418;2024-01-15T13:57:06;3.05;;;2.85;;
81629;SDS011;71039;49.500;10.418;2024-01-15T13:59:32;2.83;;;2.72;;
81629;SDS011;71039;49.500;10.418;2024-01-15T14:01:57;2.92;;;2.72;;
81629;SDS011;71039;49.500;10.418;2024-01-15T14:04:23;3.25;;;3.05;;
81629;SDS011;71039;49.500;10.418;2024-01-15T14:06:48;2.40;;;2.30;;
81629;SDS011;71039;49.500;10.418;2024-01-15T14:09:14;2.38;;;2.28;;
81629;SDS011;71039;49.500;10.418;2024-01-15T14:11:40;2.75;;;2.55;;
81629;SDS011;71039;49.500;10.418;2024-01-15T14:14:05;2.22;;;2.13;;
81629;SDS011;71039;49.500;10.418;2024-01-15T14:16:31;2.35;;;2.25;;
81629;SDS011;71039;49.500;10.418;2024-01-15T14:18:56;2.72;;;2.53;;
81629;SDS011;71039;49.500;10.418;2024-01-15T14:21:22;2.95;;;2.78;;
81629;SDS011;71039;49.500;10.418;2024-01-15T14:23:48;3.15;;;2.95;;
81629;SDS011;71039;49.500;10.418;2024-01-15T14:26:13;2.38;;;2.28;;
81629;SDS011;71039;49.500;10.418;2024-01-15T14:28:39;2.58;;;2.47;;
81629;SDS011;71039;49.500;10.418;2024-01-15T14:31:04;2.75;;;2.65;;
81629;SDS011;71039;49.500;10.418;2024-01-15T14:33:30;3.22;;;3.03;;
81629;SDS011;71039;49.500;10.418;2024-01-15T14:35:55;2.50;;;2.40;;
81629;SDS011;71039;49.500;10.418;2024-01-15T14:38:21;1.95;;;1.85;;
81629;SDS011;71039;49.500;10.418;2024-01-15T14:40:46;2.80;;;2.60;;
81629;SDS011;71039;49.500;10.418;2024-01-15T14:43:12;2.28;;;2.17;;